createdAt,value
2019-06-27T00:02:34.770Z,6.80
2019-06-27T00:05:12.666Z,6.47
2019-06-27T00:07:52.632Z,7.03
2019-06-27T00:10:34.248Z,7.60
2019-06-27T00:13:10.457Z,7.60
2019-06-27T00:15:49.591Z,8.27
2019-06-27T00:18:26.685Z,8.57
2019-06-27T00:21:07.641Z,9.27
2019-06-27T00:23:50.092Z,10.57
2019-06-27T00:26:29.094Z,10.70
2019-06-27T00:29:06.121Z,11.03
2019-06-27T00:31:44.371Z,11.77
2019-06-27T00:34:20.089Z,13.50
2019-06-27T00:36:56.482Z,11.90
2019-06-27T00:39:31.523Z,11.83
2019-06-27T00:42:13.581Z,12.63
2019-06-27T00:44:53.050Z,11.60
2019-06-27T00:47:28.510Z,10.33
2019-06-27T00:50:07.434Z,10.30
2019-06-27T00:52:52.503Z,10.63
2019-06-27T00:55:30.099Z,10.07
2019-06-27T00:58:07.093Z,9.47
2019-06-27T01:00:45.586Z,8.77
2019-06-27T01:03:30.099Z,8.97
2019-06-27T01:06:05.119Z,8.57
2019-06-27T01:08:44.624Z,8.33
2019-06-27T01:11:20.101Z,7.90
2019-06-27T01:13:59.595Z,7.80
2019-06-27T01:16:36.091Z,7.47
2019-06-27T01:19:13.097Z,7.23
2019-06-27T01:21:49.396Z,8.13
2019-06-27T01:24:27.305Z,7.17
2019-06-27T01:27:03.968Z,7.77
2019-06-27T01:29:39.414Z,8.40
2019-06-27T01:32:16.502Z,7.83
2019-06-27T01:34:53.984Z,8.20
2019-06-27T01:37:34.553Z,7.27
2019-06-27T01:40:16.751Z,8.90
2019-06-27T01:42:53.666Z,7.33
2019-06-27T01:45:46.681Z,8.37
2019-06-27T01:48:24.584Z,7.37
2019-06-27T01:51:02.113Z,7.47
2019-06-27T01:53:40.387Z,7.30
2019-06-27T01:56:16.647Z,7.07
2019-06-27T01:58:53.322Z,6.67
2019-06-27T02:01:29.595Z,7.23
2019-06-27T02:04:06.111Z,7.03
2019-06-27T02:06:41.119Z,6.83
2019-06-27T02:09:18.573Z,6.70
2019-06-27T02:11:55.453Z,6.40
2019-06-27T02:14:31.313Z,6.73
2019-06-27T02:17:10.453Z,6.10
2019-06-27T02:19:46.127Z,6.73
2019-06-27T02:22:26.644Z,7.00
2019-06-27T02:25:03.334Z,6.13
2019-06-27T02:27:43.688Z,6.57
2019-06-27T02:30:29.599Z,6.73
2019-06-27T02:33:06.443Z,6.13
2019-06-27T02:35:50.092Z,7.30
2019-06-27T02:38:25.318Z,6.80
2019-06-27T02:41:03.632Z,6.77
2019-06-27T02:43:40.706Z,6.53
2019-06-27T02:46:18.418Z,6.93
2019-06-27T02:48:54.471Z,7.43
2019-06-27T02:51:32.775Z,6.30
2019-06-27T02:54:11.109Z,7.30
2019-06-27T02:56:46.534Z,6.93
2019-06-27T02:59:22.784Z,7.20
2019-06-27T03:02:03.778Z,6.90
2019-06-27T03:04:41.659Z,7.87
2019-06-27T03:07:20.588Z,7.60
2019-06-27T03:10:01.390Z,7.00
2019-06-27T03:12:40.706Z,7.00
2019-06-27T03:15:20.639Z,7.63
2019-06-27T03:17:59.975Z,7.00
2019-06-27T03:20:38.707Z,7.23
2019-06-27T03:23:20.484Z,7.20
2019-06-27T03:25:56.113Z,7.40
2019-06-27T03:28:50.549Z,6.90
2019-06-27T03:31:17.134Z,7.07
2019-06-27T03:33:56.802Z,7.27
2019-06-27T03:36:33.469Z,7.03
2019-06-27T03:39:09.322Z,6.70
2019-06-27T03:41:48.111Z,7.50
2019-06-27T03:44:24.099Z,7.57
2019-06-27T03:47:00.976Z,8.13
2019-06-27T03:49:35.600Z,7.13
2019-06-27T03:52:11.114Z,7.97
2019-06-27T03:54:49.566Z,7.30
2019-06-27T03:57:24.799Z,7.53
2019-06-27T04:00:02.208Z,7.97
2019-06-27T04:02:37.333Z,8.00
2019-06-27T04:05:13.378Z,7.60
2019-06-27T04:07:49.436Z,8.80
2019-06-27T04:10:27.542Z,8.43
2019-06-27T04:13:04.828Z,7.93
2019-06-27T04:15:41.138Z,7.37
2019-06-27T04:18:17.128Z,7.20
2019-06-27T04:20:53.627Z,7.43
2019-06-27T04:23:30.699Z,7.47
2019-06-27T04:26:08.600Z,7.57
2019-06-27T04:28:44.657Z,8.30
2019-06-27T04:42:17.541Z,8.53
2019-06-27T04:52:52.591Z,8.43
2019-06-27T04:55:29.684Z,8.67
2019-06-27T04:58:06.756Z,8.80
2019-06-27T05:00:46.711Z,8.70
2019-06-27T05:07:02.528Z,8.70
2019-06-27T05:22:50.746Z,9.30
2019-06-27T05:25:31.708Z,9.83
2019-06-27T05:28:09.131Z,9.07
2019-06-27T05:30:50.428Z,9.33
2019-06-27T05:33:29.521Z,9.63
2019-06-27T05:53:29.650Z,9.87
2019-06-27T05:56:09.581Z,9.90
2019-06-27T06:02:16.395Z,9.40
2019-06-27T06:05:10.075Z,10.47
2019-06-27T06:07:46.726Z,9.83
2019-06-27T06:29:08.200Z,8.70
2019-06-27T06:31:44.417Z,9.17
2019-06-27T06:37:27.680Z,8.70
2019-06-27T06:56:09.317Z,7.97
2019-06-27T06:58:59.139Z,8.20
2019-06-27T07:17:03.788Z,9.10
2019-06-27T07:23:15.207Z,9.27
2019-06-27T07:25:55.618Z,9.07
2019-06-27T07:29:04.367Z,8.87
2019-06-27T07:35:32.135Z,8.70
2019-06-27T07:38:35.424Z,9.37
2019-06-27T07:41:19.086Z,8.40
2019-06-27T07:51:08.680Z,7.93
2019-06-27T07:54:27.954Z,7.83
2019-06-27T08:00:39.886Z,7.73
2019-06-27T08:03:17.973Z,7.33
2019-06-27T08:09:24.800Z,7.47
2019-06-27T08:15:35.665Z,7.77
2019-06-27T08:21:45.740Z,9.00
2019-06-27T08:27:52.136Z,7.20
2019-06-27T08:37:37.034Z,7.57
2019-06-27T08:40:28.358Z,6.53
2019-06-27T08:43:21.287Z,7.73
2019-06-27T08:46:04.752Z,6.60
2019-06-27T08:49:04.963Z,7.07
2019-06-27T08:51:43.676Z,6.30
2019-06-27T08:54:20.335Z,6.77
2019-06-27T08:56:57.635Z,6.97
2019-06-27T08:59:34.234Z,6.70
2019-06-27T09:02:09.563Z,7.27
2019-06-27T09:04:50.725Z,7.23
2019-06-27T09:07:26.779Z,6.63
2019-06-27T09:11:04.896Z,6.90
2019-06-27T09:14:39.872Z,7.00
2019-06-27T09:26:23.627Z,8.07
2019-06-27T09:42:27.013Z,6.73
2019-06-27T09:45:06.136Z,7.40
2019-06-27T09:53:49.824Z,10.30
2019-06-27T09:56:24.263Z,9.23
2019-06-27T09:58:58.270Z,10.07
2019-06-27T10:04:37.795Z,9.73
2019-06-27T10:11:28.657Z,9.40
2019-06-27T10:17:45.278Z,9.37
2019-06-27T10:20:20.692Z,9.80
2019-06-27T10:22:57.579Z,8.97
2019-06-27T10:28:55.765Z,9.27
2019-06-27T10:38:48.670Z,10.40
2019-06-27T10:41:24.765Z,9.77
2019-06-27T10:44:01.186Z,10.80
2019-06-27T10:46:35.815Z,10.50
2019-06-27T10:59:39.787Z,11.43
2019-06-27T11:08:07.319Z,10.77
2019-06-27T11:10:51.155Z,10.97
2019-06-27T11:13:33.117Z,11.07
2019-06-27T11:19:51.851Z,11.33
2019-06-27T11:22:22.735Z,11.70
2019-06-27T11:25:35.936Z,12.00
2019-06-27T11:28:18.880Z,11.03
2019-06-27T11:31:03.136Z,10.50
2019-06-27T11:33:40.823Z,11.13
2019-06-27T11:36:19.259Z,11.10
2019-06-27T11:38:55.808Z,11.13
2019-06-27T11:41:47.419Z,11.70
2019-06-27T11:51:02.046Z,11.87
2019-06-27T11:53:41.164Z,11.63
2019-06-27T11:56:17.833Z,11.13
2019-06-27T11:58:58.807Z,11.13
2019-06-27T12:01:36.205Z,12.77
2019-06-27T12:04:16.857Z,11.90
2019-06-27T12:06:54.034Z,12.00
2019-06-27T12:09:31.632Z,11.50
2019-06-27T12:12:14.877Z,10.23
2019-06-27T12:14:54.605Z,10.97
2019-06-27T12:24:01.623Z,11.20
2019-06-27T12:26:37.685Z,10.80
2019-06-27T12:33:47.147Z,11.50
2019-06-27T12:40:14.842Z,11.60
2019-06-27T12:53:41.962Z,10.57
2019-06-27T12:56:19.334Z,11.07
2019-06-27T12:58:55.336Z,11.13
2019-06-27T13:05:11.923Z,10.30
2019-06-27T13:07:51.868Z,11.07
2019-06-27T13:10:37.552Z,10.23
2019-06-27T13:20:30.866Z,10.65
2019-06-27T13:23:08.556Z,10.70
2019-06-27T13:25:47.687Z,10.63
2019-06-27T13:28:26.610Z,9.87
2019-06-27T13:31:28.879Z,10.50
2019-06-27T13:34:36.080Z,10.10
2019-06-27T13:37:02.386Z,9.87
2019-06-27T13:49:45.334Z,10.13
2019-06-27T13:56:08.166Z,10.32
2019-06-27T14:01:53.855Z,10.25
2019-06-27T14:08:17.252Z,9.93
2019-06-27T14:14:16.353Z,10.40
2019-06-27T14:16:54.980Z,10.63
2019-06-27T14:19:57.873Z,9.97
2019-06-27T14:25:39.352Z,9.83
2019-06-27T14:31:50.360Z,10.00
2019-06-27T14:34:44.858Z,10.45
2019-06-27T14:37:30.726Z,11.47
2019-06-27T14:40:36.928Z,11.05
2019-06-27T14:43:32.009Z,10.32
2019-06-27T14:46:46.603Z,9.13
2019-06-27T14:49:38.197Z,9.60
2019-06-27T14:52:21.373Z,9.53
2019-06-27T14:55:07.713Z,8.67
2019-06-27T15:11:44.893Z,9.18
2019-06-27T15:18:02.506Z,9.65
2019-06-27T15:20:43.954Z,9.38
2019-06-27T15:46:59.044Z,8.78
2019-06-27T15:49:40.415Z,8.50
2019-06-27T15:56:54.635Z,8.65
2019-06-27T16:03:10.196Z,7.97
2019-06-27T16:18:41.005Z,8.35
2019-06-27T16:22:19.380Z,8.08
2019-06-27T16:24:58.379Z,8.45
2019-06-27T16:33:42.747Z,8.18
2019-06-27T16:40:40.750Z,8.33
2019-06-27T16:43:21.399Z,7.87
2019-06-27T16:49:26.890Z,8.93
2019-06-27T16:55:07.882Z,8.03
2019-06-27T16:57:44.946Z,8.13
2019-06-27T17:00:21.621Z,7.85
2019-06-27T17:12:26.621Z,8.43
2019-06-27T17:21:12.409Z,7.90
2019-06-27T17:23:47.414Z,8.85
2019-06-27T17:29:36.426Z,8.80
2019-06-27T17:36:16.143Z,10.85
2019-06-27T17:42:40.423Z,10.05
2019-06-27T17:49:06.287Z,10.08
2019-06-27T17:51:48.289Z,10.03
2019-06-27T18:10:58.944Z,10.63
2019-06-27T18:17:01.844Z,11.77
2019-06-27T18:23:47.753Z,15.50
2019-06-27T18:40:13.659Z,10.37
2019-06-27T18:55:39.769Z,11.13
2019-06-27T19:01:16.061Z,11.07
2019-06-27T19:07:47.018Z,10.60
2019-06-27T19:10:40.278Z,10.40
2019-06-27T19:13:40.911Z,10.93
2019-06-27T19:16:29.454Z,11.07
2019-06-27T19:19:30.435Z,10.63
2019-06-27T19:51:55.074Z,12.07
2019-06-27T19:54:46.907Z,13.07
2019-06-27T19:57:43.026Z,13.20
2019-06-27T20:00:42.044Z,12.63
2019-06-27T20:06:40.456Z,13.30
2019-06-27T20:13:47.844Z,12.83
2019-06-27T20:16:07.453Z,12.60
2019-06-27T20:29:20.912Z,13.20
2019-06-27T20:32:10.282Z,12.70
2019-06-27T20:34:50.434Z,12.87
2019-06-27T20:41:04.469Z,13.23
2019-06-27T20:43:45.472Z,13.20
2019-06-27T20:46:38.460Z,13.40
2019-06-27T20:49:18.170Z,13.73
2019-06-27T21:02:38.939Z,13.47
2019-06-27T21:09:19.945Z,13.00
2019-06-27T21:12:03.983Z,13.37
2019-06-27T21:18:38.481Z,13.20
2019-06-27T21:25:14.102Z,14.70
2019-06-27T21:28:10.854Z,14.20
2019-06-27T21:37:27.287Z,13.87
2019-06-27T21:40:09.085Z,13.50
2019-06-27T21:52:33.128Z,12.77
2019-06-27T21:55:37.030Z,11.50
2019-06-27T22:05:18.498Z,12.10
2019-06-27T22:11:35.901Z,12.60
2019-06-27T22:31:03.524Z,13.97
2019-06-27T22:37:08.421Z,13.40
2019-06-27T22:43:47.991Z,13.40
2019-06-27T22:46:56.496Z,12.13
2019-06-27T22:49:51.710Z,13.23
2019-06-27T22:56:10.998Z,13.17
2019-06-27T22:58:53.838Z,13.07
2019-06-27T23:01:29.550Z,14.07
2019-06-27T23:04:07.499Z,12.57
2019-06-27T23:09:58.185Z,13.03
2019-06-27T23:13:12.952Z,13.77
2019-06-27T23:19:24.253Z,14.13
2019-06-27T23:25:46.501Z,13.50
2019-06-27T23:31:41.740Z,13.50
2019-06-27T23:38:03.279Z,13.43
2019-06-27T23:44:27.693Z,13.13
2019-06-27T23:50:29.171Z,13.77
2019-06-27T23:56:43.944Z,12.90
